createdAt,value
2019-03-13T00:00:27.638Z,95576.53
2019-03-13T00:01:42.019Z,95575.70
2019-03-13T00:02:50.386Z,95573.59
2019-03-13T00:03:57.611Z,95575.35
2019-03-13T00:05:05.801Z,95564.56
2019-03-13T00:06:13.984Z,95564.34
2019-03-13T00:07:21.388Z,95564.34
2019-03-13T00:08:28.599Z,95563.28
2019-03-13T00:09:35.854Z,95566.69
2019-03-13T00:10:43.137Z,95561.84
2019-03-13T00:11:50.321Z,95561.38
2019-03-13T00:12:57.529Z,95557.86
2019-03-13T00:14:04.744Z,95549.54
2019-03-13T00:15:12.057Z,95552.83
2019-03-13T00:16:19.449Z,95548.84
2019-03-13T00:17:26.657Z,95555.06
2019-03-13T00:18:33.885Z,95559.63
2019-03-13T00:19:41.198Z,95550.92
2019-03-13T00:20:48.424Z,95555.14
2019-03-13T00:21:56.759Z,95558.90
2019-03-13T00:23:04.035Z,95556.67
2019-03-13T00:24:11.317Z,95559.61
2019-03-13T00:25:18.542Z,95556.55
2019-03-13T00:26:25.787Z,95550.22
2019-03-13T00:27:33.020Z,95553.62
2019-03-13T00:28:40.203Z,95540.25
2019-03-13T00:29:47.431Z,95541.89
2019-03-13T00:30:54.624Z,95541.30
2019-03-13T00:32:01.838Z,95541.19
2019-03-13T00:33:09.030Z,95540.13
2019-03-13T00:34:16.240Z,95535.64
2019-03-13T00:35:23.466Z,95538.45
2019-03-13T00:36:30.695Z,95527.19
2019-03-13T00:37:37.923Z,95522.03
2019-03-13T00:38:45.144Z,95518.51
2019-03-13T00:39:52.383Z,95517.92
2019-03-13T00:40:59.590Z,95511.34
2019-03-13T00:42:06.789Z,95497.85
2019-03-13T00:43:13.990Z,95512.25
2019-03-13T00:44:21.210Z,95519.53
2019-03-13T00:45:28.421Z,95507.32
2019-03-13T00:46:37.507Z,95488.78
2019-03-13T00:47:44.722Z,95482.20
2019-03-13T00:48:51.942Z,95508.14
2019-03-13T00:49:59.183Z,95503.45
2019-03-13T00:51:06.409Z,95505.67
2019-03-13T00:52:13.650Z,95505.56
2019-03-13T00:53:20.862Z,95521.52
2019-03-13T00:54:28.237Z,95525.86
2019-03-13T00:55:35.431Z,95516.00
2019-03-13T00:56:42.627Z,95508.38
2019-03-13T00:57:49.887Z,95506.15
2019-03-13T00:58:58.209Z,95518.70
2019-03-13T01:00:06.016Z,95520.34
2019-03-13T01:01:38.270Z,95522.58
2019-03-13T01:02:46.317Z,95526.45
2019-03-13T01:04:15.475Z,95532.35
2019-03-13T01:05:27.787Z,95522.84
2019-03-13T01:06:38.146Z,95535.88
2019-03-13T01:07:45.344Z,95526.09
2019-03-13T01:08:52.566Z,95540.53
2019-03-13T01:10:00.857Z,95542.05
2019-03-13T01:11:09.343Z,95524.80
2019-03-13T01:12:16.553Z,95523.05
2019-03-13T01:13:23.825Z,95531.14
2019-03-13T01:14:31.037Z,95526.91
2019-03-13T01:15:38.261Z,95532.08
2019-03-13T01:16:45.456Z,95536.42
2019-03-13T01:17:52.667Z,95539.47
2019-03-13T01:18:59.878Z,95541.23
2019-03-13T01:20:07.702Z,95548.63
2019-03-13T01:21:14.960Z,95549.92
2019-03-13T01:22:22.169Z,95553.32
2019-03-13T01:23:29.395Z,95555.55
2019-03-13T01:24:36.728Z,95556.38
2019-03-13T01:25:43.966Z,95566.58
2019-03-13T01:26:51.236Z,95562.70
2019-03-13T01:27:58.433Z,95556.61
2019-03-13T01:29:05.673Z,95557.42
2019-03-13T01:30:14.099Z,95558.59
2019-03-13T01:31:39.074Z,95558.13
2019-03-13T01:32:49.734Z,95556.72
2019-03-13T01:34:09.815Z,95561.41
2019-03-13T01:35:29.510Z,95558.13
2019-03-13T01:36:36.718Z,95556.48
2019-03-13T01:37:43.962Z,95558.37
2019-03-13T01:38:51.199Z,95558.25
2019-03-13T01:39:58.427Z,95571.52
2019-03-13T01:41:05.878Z,95564.94
2019-03-13T01:42:13.071Z,95577.26
2019-03-13T01:43:20.312Z,95576.79
2019-03-13T01:44:28.848Z,95577.96
2019-03-13T01:45:35.994Z,95587.82
2019-03-13T01:46:43.221Z,95592.05
2019-03-13T01:47:50.460Z,95595.92
2019-03-13T01:48:57.686Z,95601.08
2019-03-13T01:50:05.121Z,95595.09
2019-03-13T01:51:12.336Z,95596.03
2019-03-13T01:52:19.544Z,95616.69
2019-03-13T01:53:26.739Z,95610.59
2019-03-13T01:54:33.948Z,95640.05
2019-03-13T01:55:41.176Z,95626.90
2019-03-13T01:56:48.415Z,95635.94
2019-03-13T01:57:55.642Z,95653.19
2019-03-13T01:59:02.851Z,95653.89
2019-03-13T02:00:12.027Z,95656.14
2019-03-13T02:01:19.423Z,95655.44
2019-03-13T02:02:26.613Z,95659.78
2019-03-13T02:03:33.809Z,95668.93
2019-03-13T02:04:41.025Z,95674.56
2019-03-13T02:05:48.259Z,95681.59
2019-03-13T02:06:55.486Z,95700.25
2019-03-13T02:08:02.877Z,95705.17
2019-03-13T02:09:10.102Z,95691.81
2019-03-13T02:10:17.401Z,95719.14
2019-03-13T02:11:24.657Z,95754.33
2019-03-13T02:12:32.035Z,95736.61
2019-03-13T02:13:39.341Z,95743.03
2019-03-13T02:14:46.515Z,95737.17
2019-03-13T02:15:53.725Z,95734.56
2019-03-13T02:17:00.950Z,95757.31
2019-03-13T02:18:08.161Z,95753.05
2019-03-13T02:19:15.387Z,95766.73
2019-03-13T02:20:22.615Z,95767.16
2019-03-13T02:21:29.945Z,95758.61
2019-03-13T02:22:37.199Z,95768.88
2019-03-13T02:23:44.415Z,95774.59
2019-03-13T02:24:54.038Z,95770.33
2019-03-13T02:26:00.527Z,95771.11
2019-03-13T02:27:07.770Z,95787.92
2019-03-13T02:28:14.980Z,95788.37
2019-03-13T02:29:22.206Z,95803.31
2019-03-13T02:30:30.857Z,95797.58
2019-03-13T02:31:38.051Z,95803.60
2019-03-13T02:32:45.457Z,95805.45
2019-03-13T02:33:53.766Z,95816.92
2019-03-13T02:35:00.950Z,95815.48
2019-03-13T02:36:09.609Z,95817.80
2019-03-13T02:37:16.863Z,95821.14
2019-03-13T02:38:24.079Z,95820.55
2019-03-13T02:39:31.302Z,95815.59
2019-03-13T02:40:38.577Z,95816.52
2019-03-13T02:41:45.768Z,95816.73
2019-03-13T02:42:52.962Z,95855.08
2019-03-13T02:44:00.174Z,95817.16
2019-03-13T02:45:09.154Z,95830.13
2019-03-13T02:46:16.351Z,95827.30
2019-03-13T02:47:23.618Z,95825.75
2019-03-13T02:48:30.801Z,95829.25
2019-03-13T02:49:38.067Z,95838.84
2019-03-13T02:50:45.312Z,95847.95
2019-03-13T02:51:52.508Z,95833.99
2019-03-13T02:52:59.722Z,95829.77
2019-03-13T02:54:06.916Z,95823.80
2019-03-13T02:55:14.349Z,95829.05
2019-03-13T02:56:21.637Z,95816.64
2019-03-13T02:57:28.914Z,95827.86
2019-03-13T02:58:36.119Z,95838.61
2019-03-13T02:59:43.328Z,95825.02
2019-03-13T03:00:59.392Z,95836.73
2019-03-13T03:02:25.563Z,95835.91
2019-03-13T03:03:35.313Z,95845.11
2019-03-13T03:04:42.520Z,95838.77
2019-03-13T03:05:49.776Z,95848.14
2019-03-13T03:06:56.972Z,95844.75
2019-03-13T03:08:04.185Z,95853.75
2019-03-13T03:09:11.453Z,95856.23
2019-03-13T03:10:20.247Z,95859.27
2019-03-13T03:11:27.438Z,95855.59
2019-03-13T03:12:35.753Z,95859.09
2019-03-13T03:13:42.952Z,95854.41
2019-03-13T03:15:09.935Z,95850.65
2019-03-13T03:16:17.160Z,95858.36
2019-03-13T03:17:24.356Z,95860.99
2019-03-13T03:18:31.582Z,95881.20
2019-03-13T03:19:38.799Z,95870.66
2019-03-13T03:20:46.005Z,95865.61
2019-03-13T03:21:53.289Z,95870.75
2019-03-13T03:23:00.491Z,95867.25
2019-03-13T03:24:07.695Z,95862.20
2019-03-13T03:25:15.781Z,95871.31
2019-03-13T03:26:23.026Z,95865.47
2019-03-13T03:27:30.242Z,95868.59
2019-03-13T03:28:37.452Z,95877.23
2019-03-13T03:29:44.666Z,95877.23
2019-03-13T03:30:51.860Z,95885.87
2019-03-13T03:31:59.057Z,95886.42
2019-03-13T03:33:06.275Z,95890.47
2019-03-13T03:34:13.499Z,95903.33
2019-03-13T03:35:21.183Z,95897.95
2019-03-13T03:36:28.828Z,95909.98
2019-03-13T03:37:36.077Z,95916.87
2019-03-13T03:38:43.264Z,95914.76
2019-03-13T03:39:50.505Z,95926.79
2019-03-13T03:40:57.731Z,95922.94
2019-03-13T03:42:05.198Z,95916.97
2019-03-13T03:43:12.436Z,95922.56
2019-03-13T03:44:19.620Z,95938.09
2019-03-13T03:45:26.858Z,95941.13
2019-03-13T03:46:34.039Z,95938.64
2019-03-13T03:47:41.250Z,95940.48
2019-03-13T03:48:48.461Z,95942.69
2019-03-13T03:49:55.672Z,95944.89
2019-03-13T03:51:02.930Z,95938.46
2019-03-13T03:52:10.226Z,95943.15
2019-03-13T03:53:17.454Z,95945.72
2019-03-13T03:54:24.660Z,95947.73
2019-03-13T03:55:31.875Z,95945.16
2019-03-13T03:56:39.092Z,95944.24
2019-03-13T03:57:46.896Z,95943.78
2019-03-13T03:58:54.114Z,95948.01
2019-03-13T04:00:02.907Z,95955.72
2019-03-13T04:01:12.027Z,95951.96
2019-03-13T04:02:19.234Z,95957.56
2019-03-13T04:03:26.462Z,95952.05
2019-03-13T04:04:33.671Z,95958.11
2019-03-13T04:05:40.896Z,95948.38
2019-03-13T04:06:48.196Z,95950.95
2019-03-13T04:07:55.409Z,95953.28
2019-03-13T04:09:02.798Z,95962.37
2019-03-13T04:10:11.982Z,95967.15
2019-03-13T04:11:19.216Z,95968.06
2019-03-13T04:12:26.503Z,95970.73
2019-03-13T04:13:33.745Z,95972.94
2019-03-13T04:14:40.972Z,95975.59
2019-03-13T04:15:48.227Z,95976.14
2019-03-13T04:16:55.402Z,95974.52
2019-03-13T04:18:02.687Z,95980.58
2019-03-13T04:19:09.914Z,95976.45
2019-03-13T04:20:17.174Z,95982.51
2019-03-13T04:21:24.385Z,95983.88
2019-03-13T04:22:31.622Z,95980.12
2019-03-13T04:23:38.846Z,95981.83
2019-03-13T04:24:46.046Z,95984.49
2019-03-13T04:25:53.273Z,95983.30
2019-03-13T04:27:00.452Z,95983.42
2019-03-13T04:28:09.041Z,95985.72
2019-03-13T04:29:16.482Z,95987.55
2019-03-13T04:30:23.687Z,95988.47
2019-03-13T04:31:30.900Z,95990.66
2019-03-13T04:32:39.188Z,95991.13
2019-03-13T04:33:46.398Z,96006.17
2019-03-13T04:34:53.595Z,95999.75
2019-03-13T04:36:00.818Z,95995.98
2019-03-13T04:37:08.048Z,96007.55
2019-03-13T04:38:16.531Z,96012.41
2019-03-13T04:39:23.747Z,96008.67
2019-03-13T04:40:30.922Z,96016.10
2019-03-13T04:41:38.149Z,96011.88
2019-03-13T04:42:45.358Z,96012.70
2019-03-13T04:43:52.569Z,96019.22
2019-03-13T04:44:59.750Z,96022.61
2019-03-13T04:46:06.945Z,96023.98
2019-03-13T04:47:14.186Z,96029.95
2019-03-13T04:48:21.366Z,96026.09
2019-03-13T04:49:28.562Z,96034.17
2019-03-13T04:50:36.823Z,96029.04
2019-03-13T04:51:44.139Z,96030.32
2019-03-13T04:52:51.349Z,96031.98
2019-03-13T04:53:58.547Z,96034.55
2019-03-13T04:55:05.788Z,96027.30
2019-03-13T04:56:12.999Z,96032.44
2019-03-13T04:57:20.207Z,96030.32
2019-03-13T04:58:27.403Z,96030.78
2019-03-13T04:59:34.583Z,96038.12
2019-03-13T05:00:41.765Z,96036.38
2019-03-13T05:01:48.990Z,96046.28
2019-03-13T05:02:56.186Z,96035.55
2019-03-13T05:04:03.396Z,96044.09
2019-03-13T05:05:53.763Z,96036.09
2019-03-13T05:07:00.981Z,96042.61
2019-03-13T05:08:08.175Z,96046.27
2019-03-13T05:09:19.407Z,96048.56
2019-03-13T05:10:26.650Z,96046.81
2019-03-13T05:11:33.844Z,96052.41
2019-03-13T05:12:41.056Z,96041.67
2019-03-13T05:13:48.264Z,96044.34
2019-03-13T05:14:55.460Z,96051.25
2019-03-13T05:16:02.659Z,96053.70
2019-03-13T05:17:09.857Z,96048.67
2019-03-13T05:18:17.077Z,96061.03
2019-03-13T05:19:24.303Z,96055.44
2019-03-13T05:20:31.518Z,96065.71
2019-03-13T05:21:38.754Z,96068.28
2019-03-13T05:22:45.983Z,96060.23
2019-03-13T05:23:53.193Z,96057.67
2019-03-13T05:25:00.435Z,96066.66
2019-03-13T05:26:07.779Z,96062.44
2019-03-13T05:27:14.958Z,96074.45
2019-03-13T05:28:22.125Z,96065.91
2019-03-13T05:29:29.364Z,96074.91
2019-03-13T05:30:37.675Z,96080.04
2019-03-13T05:31:44.902Z,96077.56
2019-03-13T05:32:52.096Z,96079.76
2019-03-13T05:33:59.322Z,96073.79
2019-03-13T05:35:06.963Z,96073.88
2019-03-13T05:36:16.809Z,96072.59
2019-03-13T05:37:23.071Z,96074.79
2019-03-13T05:38:30.312Z,96072.67
2019-03-13T05:39:37.477Z,96069.28
2019-03-13T05:40:44.706Z,96071.39
2019-03-13T05:41:51.901Z,96072.67
2019-03-13T05:42:59.081Z,96064.97
2019-03-13T05:44:06.474Z,96068.37
2019-03-13T05:45:13.877Z,96073.05
2019-03-13T05:46:21.090Z,96074.34
2019-03-13T05:47:28.315Z,96072.67
2019-03-13T05:48:35.527Z,96074.34
2019-03-13T05:49:42.798Z,96081.58
2019-03-13T05:50:49.978Z,96072.51
2019-03-13T05:51:57.196Z,96062.69
2019-03-13T05:53:04.356Z,96072.51
2019-03-13T05:54:11.567Z,96062.23
2019-03-13T05:55:18.732Z,96054.90
2019-03-13T05:56:25.945Z,96057.47
2019-03-13T05:57:33.169Z,96060.49
2019-03-13T05:58:40.366Z,96057.47
2019-03-13T05:59:47.577Z,96063.89
2019-03-13T06:00:54.758Z,96068.57
2019-03-13T06:02:01.968Z,96063.06
2019-03-13T06:03:09.179Z,96059.66
2019-03-13T06:04:16.420Z,96060.95
2019-03-13T06:05:23.648Z,96061.78
2019-03-13T06:06:30.858Z,96057.09
2019-03-13T06:07:38.072Z,96051.50
2019-03-13T06:08:45.250Z,96070.31
2019-03-13T06:09:52.462Z,96064.26
2019-03-13T06:10:59.718Z,96062.52
2019-03-13T06:12:07.903Z,96072.59
2019-03-13T06:13:15.098Z,96071.22
2019-03-13T06:14:22.295Z,96078.47
2019-03-13T06:15:29.508Z,96080.03
2019-03-13T06:16:36.756Z,96089.77
2019-03-13T06:17:43.991Z,96083.63
2019-03-13T06:18:52.900Z,96092.08
2019-03-13T06:20:00.475Z,96093.25
2019-03-13T06:21:07.728Z,96090.68
2019-03-13T06:22:14.902Z,96088.48
2019-03-13T06:23:23.165Z,96100.41
2019-03-13T06:24:30.374Z,96097.84
2019-03-13T06:25:37.574Z,96099.50
2019-03-13T06:26:44.783Z,96099.87
2019-03-13T06:27:52.025Z,96101.06
2019-03-13T06:28:59.204Z,96110.34
2019-03-13T06:30:08.410Z,96108.14
2019-03-13T06:31:15.591Z,96110.17
2019-03-13T06:32:22.802Z,96117.77
2019-03-13T06:33:30.014Z,96115.48
2019-03-13T06:34:37.212Z,96123.02
2019-03-13T06:35:44.443Z,96122.02
2019-03-13T06:36:51.646Z,96120.27
2019-03-13T06:37:58.847Z,96121.55
2019-03-13T06:39:08.397Z,96127.52
2019-03-13T06:40:15.770Z,96125.87
2019-03-13T06:41:23.026Z,96128.44
2019-03-13T06:42:30.241Z,96125.04
2019-03-13T06:43:37.554Z,96126.33
2019-03-13T06:44:44.764Z,96140.45
2019-03-13T06:45:51.980Z,96126.41
2019-03-13T06:46:59.201Z,96130.27
2019-03-13T06:48:06.403Z,96134.66
2019-03-13T06:49:13.624Z,96132.55
2019-03-13T06:50:21.106Z,96127.95
2019-03-13T06:51:28.301Z,96135.75
2019-03-13T06:52:35.512Z,96127.25
2019-03-13T06:53:42.712Z,96124.30
2019-03-13T06:54:49.920Z,96133.84
2019-03-13T06:55:57.147Z,96129.62
2019-03-13T06:57:04.343Z,96132.73
2019-03-13T06:58:11.524Z,96120.80
2019-03-13T06:59:26.505Z,96117.85
2019-03-13T07:00:54.075Z,96127.22
2019-03-13T07:02:24.900Z,96120.42
2019-03-13T07:03:48.074Z,96131.33
2019-03-13T07:05:26.609Z,96124.45
2019-03-13T07:06:49.318Z,96129.39
2019-03-13T07:08:18.435Z,96121.14
2019-03-13T07:09:39.139Z,96122.13
2019-03-13T07:11:03.715Z,96129.02
2019-03-13T07:12:29.859Z,96119.48
2019-03-13T07:14:14.441Z,96132.50
2019-03-13T07:15:36.269Z,96126.36
2019-03-13T07:16:53.466Z,96128.64
2019-03-13T07:18:19.550Z,96122.22
2019-03-13T07:20:00.654Z,96132.33
2019-03-13T07:21:25.642Z,96126.11
2019-03-13T07:23:00.847Z,96132.61
2019-03-13T07:24:24.230Z,96133.23
2019-03-13T07:25:40.022Z,96135.89
2019-03-13T07:26:56.731Z,96132.41
2019-03-13T07:28:13.514Z,96134.89
2019-03-13T07:29:38.471Z,96138.58
2019-03-13T07:31:04.571Z,96133.19
2019-03-13T07:32:33.687Z,96137.58
2019-03-13T07:33:58.772Z,96140.98
2019-03-13T07:35:28.402Z,96140.78
2019-03-13T07:36:46.234Z,96133.19
2019-03-13T07:38:15.438Z,96137.58
2019-03-13T07:39:48.982Z,96119.14
2019-03-13T07:41:04.770Z,96125.48
2019-03-13T07:42:49.173Z,96116.11
2019-03-13T07:44:18.047Z,96117.66
2019-03-13T07:45:51.093Z,96118.31
2019-03-13T07:47:05.746Z,96114.83
2019-03-13T07:48:39.075Z,96123.37
2019-03-13T07:50:14.056Z,96115.45
2019-03-13T07:51:52.051Z,96106.46
2019-03-13T07:53:17.091Z,96109.86
2019-03-13T07:54:46.275Z,96105.46
2019-03-13T07:56:06.614Z,96107.20
2019-03-13T07:57:22.707Z,96114.00
2019-03-13T07:58:51.820Z,96109.97
2019-03-13T08:00:16.900Z,96102.84
2019-03-13T08:01:40.373Z,96105.28
2019-03-13T08:03:10.568Z,96115.68
2019-03-13T08:04:34.538Z,96104.45
2019-03-13T08:05:59.212Z,96099.23
2019-03-13T08:07:37.627Z,96099.14
2019-03-13T08:09:05.388Z,96115.02
2019-03-13T08:10:32.717Z,96096.50
2019-03-13T08:11:49.619Z,96091.98
2019-03-13T08:13:09.583Z,96096.29
2019-03-13T08:14:23.545Z,96094.38
2019-03-13T08:15:37.763Z,96097.14
2019-03-13T08:16:55.128Z,96093.36
2019-03-13T08:18:16.686Z,96093.50
2019-03-13T08:19:52.967Z,96093.11
2019-03-13T08:21:21.901Z,96088.16
2019-03-13T08:22:54.185Z,96098.81
2019-03-13T08:24:15.288Z,96092.95
2019-03-13T08:25:43.414Z,96094.39
2019-03-13T08:27:08.533Z,96089.44
2019-03-13T08:28:31.622Z,96090.63
2019-03-13T08:29:57.732Z,96084.11
2019-03-13T08:31:39.657Z,96094.69
2019-03-13T08:32:55.990Z,96091.90
2019-03-13T08:34:20.543Z,96100.90
2019-03-13T08:35:43.732Z,96084.73
2019-03-13T08:37:13.041Z,96084.73
2019-03-13T08:38:28.788Z,96088.97
2019-03-13T08:39:57.963Z,96093.10
2019-03-13T08:41:32.950Z,96081.68
2019-03-13T08:43:04.878Z,96098.59
2019-03-13T08:44:20.130Z,96095.47
2019-03-13T08:45:49.305Z,96097.48
2019-03-13T08:47:15.392Z,96096.72
2019-03-13T08:48:44.264Z,96112.16
2019-03-13T08:50:11.352Z,96104.95
2019-03-13T08:51:41.754Z,96100.36
2019-03-13T08:53:10.663Z,96130.48
2019-03-13T08:54:27.355Z,96096.69
2019-03-13T08:55:56.618Z,96096.22
2019-03-13T08:57:15.805Z,96104.28
2019-03-13T08:58:50.888Z,96106.03
2019-03-13T09:00:15.786Z,96105.94
2019-03-13T09:01:44.676Z,96095.27
2019-03-13T09:03:00.788Z,96098.89
2019-03-13T09:04:27.878Z,96086.11
2019-03-13T09:05:53.062Z,96091.87
2019-03-13T09:07:23.977Z,96098.95
2019-03-13T09:08:44.655Z,96098.86
2019-03-13T09:10:06.269Z,96095.09
2019-03-13T09:11:25.251Z,96100.51
2019-03-13T09:12:54.825Z,96090.67
2019-03-13T09:14:20.907Z,96085.80
2019-03-13T09:15:57.020Z,96077.06
2019-03-13T09:17:22.708Z,96076.75
2019-03-13T09:18:36.116Z,96063.41
2019-03-13T09:19:58.673Z,96069.02
2019-03-13T09:21:33.579Z,96068.92
2019-03-13T09:22:55.688Z,96061.94
2019-03-13T09:24:14.647Z,96061.47
2019-03-13T09:25:40.747Z,96048.88
2019-03-13T09:27:05.928Z,96064.92
2019-03-13T09:28:37.909Z,96065.56
2019-03-13T09:30:16.057Z,96056.64
2019-03-13T09:31:46.131Z,96061.80
2019-03-13T09:33:10.912Z,96057.10
2019-03-13T09:34:42.904Z,96055.45
2019-03-13T09:36:01.411Z,96055.21
2019-03-13T09:37:28.623Z,96061.28
2019-03-13T09:38:53.730Z,96062.84
2019-03-13T09:40:10.262Z,96058.39
2019-03-13T09:41:27.041Z,96059.31
2019-03-13T09:42:53.799Z,96060.50
2019-03-13T09:44:14.768Z,96059.03
2019-03-13T09:45:38.138Z,96061.50
2019-03-13T09:46:52.729Z,96054.88
2019-03-13T09:48:24.993Z,96052.44
2019-03-13T09:49:49.771Z,96056.02
2019-03-13T09:51:15.875Z,96038.34
2019-03-13T09:52:41.113Z,96045.71
2019-03-13T09:53:58.481Z,96052.87
2019-03-13T09:55:36.989Z,96036.59
2019-03-13T09:57:12.917Z,96040.27
2019-03-13T09:58:48.355Z,96036.77
2019-03-13T10:00:21.463Z,96040.63
2019-03-13T10:01:49.185Z,96046.15
2019-03-13T10:03:21.164Z,96041.23
2019-03-13T10:04:47.264Z,96048.30
2019-03-13T10:06:16.632Z,96040.11
2019-03-13T10:07:28.839Z,96040.28
2019-03-13T10:08:44.319Z,96043.45
2019-03-13T10:10:22.552Z,96043.16
2019-03-13T10:12:01.612Z,96045.84
2019-03-13T10:13:45.850Z,96045.54
2019-03-13T10:15:01.343Z,96053.27
2019-03-13T10:16:23.258Z,96054.30
2019-03-13T10:17:42.138Z,96045.08
2019-03-13T10:19:11.100Z,96041.61
2019-03-13T10:20:31.383Z,96040.91
2019-03-13T10:21:54.345Z,96039.63
2019-03-13T10:23:24.047Z,96043.30
2019-03-13T10:24:59.235Z,96051.03
2019-03-13T10:26:28.183Z,96048.28
2019-03-13T10:27:44.246Z,96057.07
2019-03-13T10:29:22.287Z,96045.02
2019-03-13T10:30:57.283Z,96036.69
2019-03-13T10:32:11.275Z,96036.81
2019-03-13T10:33:43.469Z,96024.86
2019-03-13T10:35:18.703Z,96028.95
2019-03-13T10:36:44.800Z,96033.09
2019-03-13T10:38:13.135Z,96029.58
2019-03-13T10:39:21.802Z,96026.34
2019-03-13T10:41:06.368Z,96039.27
2019-03-13T10:42:23.526Z,96023.95
2019-03-13T10:43:50.781Z,96030.86
2019-03-13T10:45:15.979Z,96024.22
2019-03-13T10:46:45.111Z,96021.44
2019-03-13T10:48:29.422Z,96022.73
2019-03-13T10:49:47.871Z,96017.58
2019-03-13T10:51:17.062Z,96021.64
2019-03-13T10:52:32.627Z,96021.55
2019-03-13T10:53:49.634Z,96017.02
2019-03-13T10:55:16.037Z,96019.52
2019-03-13T10:56:42.327Z,96014.41
2019-03-13T10:58:03.298Z,96004.09
2019-03-13T10:59:28.121Z,96010.31
2019-03-13T11:00:44.651Z,96010.57
2019-03-13T11:02:09.977Z,96011.03
2019-03-13T11:03:34.816Z,96019.59
2019-03-13T11:05:16.091Z,96020.06
2019-03-13T11:06:33.504Z,96022.15
2019-03-13T11:07:50.542Z,96009.20
2019-03-13T11:09:19.536Z,96018.59
2019-03-13T11:10:31.728Z,96020.60
2019-03-13T11:11:55.187Z,96018.38
2019-03-13T11:13:11.340Z,96007.83
2019-03-13T11:14:37.424Z,96009.38
2019-03-13T11:16:06.493Z,96014.34
2019-03-13T11:17:36.448Z,96006.75
2019-03-13T11:18:52.136Z,96002.55
2019-03-13T11:20:17.199Z,96004.56
2019-03-13T11:21:40.583Z,96000.17
2019-03-13T11:23:12.803Z,95998.54
2019-03-13T11:24:50.834Z,95990.95
2019-03-13T11:26:03.728Z,95991.58
2019-03-13T11:27:29.360Z,96000.19
2019-03-13T11:28:52.175Z,95992.72
2019-03-13T11:30:05.402Z,95983.00
2019-03-13T11:31:29.570Z,95977.95
2019-03-13T11:32:54.810Z,95982.33
2019-03-13T11:34:26.987Z,95984.34
2019-03-13T11:35:59.160Z,95984.91
2019-03-13T11:37:14.760Z,95971.18
2019-03-13T11:38:47.277Z,95969.89
2019-03-13T11:40:10.992Z,95974.84
2019-03-13T11:41:33.748Z,95968.84
2019-03-13T11:43:12.746Z,95966.27
2019-03-13T11:44:42.194Z,95962.86
2019-03-13T11:45:57.733Z,95960.86
2019-03-13T11:47:26.622Z,95960.75
2019-03-13T11:48:48.626Z,95965.34
2019-03-13T11:50:26.843Z,95964.88
2019-03-13T11:51:55.943Z,95955.48
2019-03-13T11:53:19.371Z,95961.67
2019-03-13T11:54:46.536Z,95956.98
2019-03-13T11:56:05.453Z,95956.98
2019-03-13T11:57:19.319Z,95968.24
2019-03-13T11:58:36.224Z,95978.92
2019-03-13T12:00:08.369Z,95948.88
2019-03-13T12:01:22.303Z,95963.44
2019-03-13T12:02:51.451Z,95961.06
2019-03-13T12:04:36.063Z,95964.48
2019-03-13T12:06:14.448Z,95972.69
2019-03-13T12:07:32.293Z,95959.05
2019-03-13T12:09:06.945Z,95969.12
2019-03-13T12:10:33.599Z,95960.19
2019-03-13T12:11:49.889Z,95963.66
2019-03-13T12:13:12.564Z,95967.63
2019-03-13T12:14:38.138Z,95969.02
2019-03-13T12:15:52.757Z,95971.50
2019-03-13T12:17:27.968Z,95961.64
2019-03-13T12:18:49.431Z,95958.70
2019-03-13T12:20:15.740Z,95959.84
2019-03-13T12:21:28.846Z,95965.11
2019-03-13T12:22:53.879Z,95961.58
2019-03-13T12:24:24.769Z,95970.14
2019-03-13T12:25:49.817Z,95967.52
2019-03-13T12:27:04.826Z,95967.50
2019-03-13T12:28:30.911Z,95963.59
2019-03-13T12:29:59.650Z,95969.46
2019-03-13T12:31:44.866Z,95976.63
2019-03-13T12:33:19.881Z,95967.50
2019-03-13T12:34:44.609Z,95962.19
2019-03-13T12:36:09.656Z,95957.96
2019-03-13T12:37:28.245Z,95953.11
2019-03-13T12:38:43.748Z,95952.06
2019-03-13T12:40:16.027Z,95951.36
2019-03-13T12:41:41.304Z,95944.24
2019-03-13T12:43:16.239Z,95941.56
2019-03-13T12:44:45.895Z,95945.22
2019-03-13T12:46:10.626Z,95928.45
2019-03-13T12:47:48.884Z,95937.02
2019-03-13T12:49:15.022Z,95920.25
2019-03-13T12:50:36.515Z,95920.38
2019-03-13T12:51:57.918Z,95917.16
2019-03-13T12:53:33.140Z,95924.13
2019-03-13T12:54:58.459Z,95907.86
2019-03-13T12:56:33.699Z,95899.23
2019-03-13T12:57:58.854Z,95899.12
2019-03-13T12:59:29.262Z,95899.86
2019-03-13T13:00:56.471Z,95899.61
2019-03-13T13:02:21.227Z,95894.72
2019-03-13T13:03:47.304Z,95891.11
2019-03-13T13:05:16.182Z,95892.56
2019-03-13T13:06:45.324Z,95884.82
2019-03-13T13:08:14.318Z,95876.49
2019-03-13T13:09:47.396Z,95874.84
2019-03-13T13:11:11.167Z,95876.27
2019-03-13T13:12:46.479Z,95875.78
2019-03-13T13:14:06.980Z,95862.24
2019-03-13T13:15:48.607Z,95863.19
2019-03-13T13:17:15.896Z,95868.84
2019-03-13T13:18:31.375Z,95870.84
2019-03-13T13:19:38.680Z,95872.80
2019-03-13T13:20:46.994Z,95865.52
2019-03-13T13:21:56.867Z,95876.10
2019-03-13T13:23:06.231Z,95867.61
2019-03-13T13:24:19.553Z,95872.55
2019-03-13T13:25:28.573Z,95869.61
2019-03-13T13:26:41.752Z,95867.38
2019-03-13T13:27:52.276Z,95873.72
2019-03-13T13:29:02.667Z,95882.30
2019-03-13T13:30:26.508Z,95875.13
2019-03-13T13:31:36.840Z,95875.36
2019-03-13T13:32:46.113Z,95890.44
2019-03-13T13:33:54.993Z,95937.01
2019-03-13T13:35:05.999Z,95926.30
2019-03-13T13:36:13.194Z,95925.84
2019-03-13T13:37:20.403Z,95901.05
2019-03-13T13:38:28.710Z,95894.69
2019-03-13T13:39:35.954Z,95901.99
2019-03-13T13:40:43.207Z,95892.00
2019-03-13T13:41:50.449Z,95896.92
2019-03-13T13:42:57.645Z,95894.80
2019-03-13T13:44:05.068Z,95900.22
2019-03-13T13:45:44.502Z,95895.76
2019-03-13T13:46:51.715Z,95904.47
2019-03-13T13:47:58.928Z,95902.58
2019-03-13T13:49:06.465Z,95902.46
2019-03-13T13:50:13.735Z,95900.69
2019-03-13T13:51:20.983Z,95896.11
2019-03-13T13:52:28.203Z,95901.77
2019-03-13T13:53:36.614Z,95907.14
2019-03-13T13:54:45.387Z,95898.24
2019-03-13T13:55:52.599Z,95895.30
2019-03-13T13:56:59.838Z,95900.94
2019-03-13T13:58:07.117Z,95894.83
2019-03-13T13:59:14.350Z,95898.92
2019-03-13T14:00:21.565Z,95899.98
2019-03-13T14:01:28.819Z,95897.99
2019-03-13T14:02:36.043Z,95898.91
2019-03-13T14:03:43.270Z,95906.32
2019-03-13T14:04:50.498Z,95899.16
2019-03-13T14:05:57.831Z,95894.11
2019-03-13T14:07:05.059Z,95891.61
2019-03-13T14:08:12.264Z,95887.27
2019-03-13T14:09:19.477Z,95871.84
2019-03-13T14:10:26.732Z,95876.78
2019-03-13T14:11:33.988Z,95873.37
2019-03-13T14:12:41.200Z,95877.69
2019-03-13T14:13:48.455Z,95875.69
2019-03-13T14:14:55.666Z,95882.27
2019-03-13T14:16:02.911Z,95862.13
2019-03-13T14:17:10.150Z,95865.77
2019-03-13T14:18:17.362Z,95860.70
2019-03-13T14:19:24.611Z,95865.41
2019-03-13T14:20:31.828Z,95855.05
2019-03-13T14:21:39.113Z,95866.69
2019-03-13T14:22:46.339Z,95860.77
2019-03-13T14:23:53.582Z,95862.16
2019-03-13T14:25:00.806Z,95851.22
2019-03-13T14:26:09.397Z,95848.98
2019-03-13T14:27:16.638Z,95850.16
2019-03-13T14:28:23.868Z,95856.97
2019-03-13T14:29:31.270Z,95836.58
2019-03-13T14:30:38.513Z,95834.69
2019-03-13T14:31:45.839Z,95835.86
2019-03-13T14:32:53.071Z,95836.80
2019-03-13T14:34:00.320Z,95838.31
2019-03-13T14:35:07.778Z,95849.22
2019-03-13T14:36:15.006Z,95850.14
2019-03-13T14:37:22.204Z,95833.89
2019-03-13T14:38:29.474Z,95849.15